sensor_id;sensor_type;location;lat;lon;timestamp;pressure;altitude;pressure_sealevel;temperature;humidity
60059;BME280;45932;50.658;3.022;2022-07-24T00:00:00;101571.94;;;24.14;45.38
60059;BME280;45932;50.658;3.022;2022-07-24T00:02:25;101623.91;;;24.39;45.14
60059;BME280;45932;50.658;3.022;2022-07-24T00:04:51;101656.22;;;24.62;45.47
60059;BME280;45932;50.658;3.022;2022-07-24T00:07:21;101564.81;;;24.12;45.63
60059;BME280;45932;50.658;3.022;2022-07-24T00:13:08;101585.41;;;24.14;45.43
60059;BME280;45932;50.658;3.022;2022-07-24T00:15:33;101692.81;;;24.70;45.72
60059;BME280;45932;50.658;3.022;2022-07-24T00:17:59;101571.81;;;23.95;45.80
60059;BME280;45932;50.658;3.022;2022-07-24T00:20:25;101539.94;;;23.83;45.60
60059;BME280;45932;50.658;3.022;2022-07-24T00:22:50;101538.78;;;23.89;45.96
60059;BME280;45932;50.658;3.022;2022-07-24T00:25:15;101560.09;;;23.96;45.68
60059;BME280;45932;50.658;3.022;2022-07-24T00:27:41;101530.34;;;23.76;45.92
60059;BME280;45932;50.658;3.022;2022-07-24T00:33:37;101629.72;;;24.29;46.01
60059;BME280;45932;50.658;3.022;2022-07-24T00:36:03;101667.34;;;24.55;46.30
60059;BME280;45932;50.658;3.022;2022-07-24T00:38:28;101570.25;;;23.88;46.63
60059;BME280;45932;50.658;3.022;2022-07-24T00:40:54;101522.28;;;23.76;47.28
60059;BME280;45932;50.658;3.022;2022-07-24T00:43:19;101673.19;;;24.44;46.66
60059;BME280;45932;50.658;3.022;2022-07-24T00:45:46;101607.41;;;24.04;46.49
60059;BME280;45932;50.658;3.022;2022-07-24T00:48:11;101654.84;;;24.30;46.76
60059;BME280;45932;50.658;3.022;2022-07-24T00:50:37;101658.19;;;24.37;46.57
60059;BME280;45932;50.658;3.022;2022-07-24T00:53:04;101518.69;;;23.53;46.53
60059;BME280;45932;50.658;3.022;2022-07-24T00:55:30;101624.44;;;24.04;46.71
60059;BME280;45932;50.658;3.022;2022-07-24T00:57:56;101587.97;;;23.95;46.63
60059;BME280;45932;50.658;3.022;2022-07-24T01:00:22;101661.06;;;24.32;46.74
60059;BME280;45932;50.658;3.022;2022-07-24T01:02:49;101562.00;;;23.71;46.72
60059;BME280;45932;50.658;3.022;2022-07-24T01:05:15;101522.31;;;23.52;46.94
60059;BME280;45932;50.658;3.022;2022-07-24T01:07:41;101629.59;;;24.10;46.58
60059;BME280;45932;50.658;3.022;2022-07-24T01:10:07;101547.94;;;23.62;46.89
60059;BME280;45932;50.658;3.022;2022-07-24T01:12:35;101563.50;;;23.78;47.36
60059;BME280;45932;50.658;3.022;2022-07-24T01:15:02;101656.03;;;24.23;47.03
60059;BME280;45932;50.658;3.022;2022-07-24T01:17:32;101662.31;;;24.23;47.16
60059;BME280;45932;50.658;3.022;2022-07-24T01:19:58;101560.50;;;23.63;47.00
60059;BME280;45932;50.658;3.022;2022-07-24T01:22:25;101474.00;;;23.25;47.22
60059;BME280;45932;50.658;3.022;2022-07-24T01:24:51;101594.44;;;23.90;47.13
60059;BME280;45932;50.658;3.022;2022-07-24T01:27:16;101626.72;;;24.15;47.33
60059;BME280;45932;50.658;3.022;2022-07-24T01:29:42;101482.16;;;23.24;47.43
60059;BME280;45932;50.658;3.022;2022-07-24T01:32:08;101539.47;;;23.49;47.57
60059;BME280;45932;50.658;3.022;2022-07-24T01:34:33;101472.44;;;23.20;47.50
60059;BME280;45932;50.658;3.022;2022-07-24T01:36:58;101448.78;;;23.04;47.63
60059;BME280;45932;50.658;3.022;2022-07-24T01:39:24;101456.69;;;23.09;47.42
60059;BME280;45932;50.658;3.022;2022-07-24T01:41:49;101503.16;;;23.38;47.13
60059;BME280;45932;50.658;3.022;2022-07-24T01:44:14;101486.28;;;23.32;47.29
60059;BME280;45932;50.658;3.022;2022-07-24T01:46:40;101476.94;;;23.19;47.54
60059;BME280;45932;50.658;3.022;2022-07-24T01:49:06;101509.81;;;23.27;47.44
60059;BME280;45932;50.658;3.022;2022-07-24T01:51:31;101501.56;;;23.32;47.87
60059;BME280;45932;50.658;3.022;2022-07-24T01:53:57;101440.25;;;22.93;47.74
60059;BME280;45932;50.658;3.022;2022-07-24T01:56:22;101495.44;;;23.28;47.70
60059;BME280;45932;50.658;3.022;2022-07-24T01:58:47;101538.72;;;23.46;47.62
60059;BME280;45932;50.658;3.022;2022-07-24T02:01:13;101486.97;;;23.14;47.91
60059;BME280;45932;50.658;3.022;2022-07-24T02:03:39;101481.53;;;23.17;47.78
60059;BME280;45932;50.658;3.022;2022-07-24T02:06:04;101496.91;;;23.12;47.67
60059;BME280;45932;50.658;3.022;2022-07-24T02:08:30;101520.34;;;23.33;47.82
60059;BME280;45932;50.658;3.022;2022-07-24T02:10:56;101575.13;;;23.56;47.87
60059;BME280;45932;50.658;3.022;2022-07-24T02:13:21;101438.31;;;22.73;47.77
60059;BME280;45932;50.658;3.022;2022-07-24T02:15:46;101497.75;;;23.14;48.09
60059;BME280;45932;50.658;3.022;2022-07-24T02:18:12;101522.34;;;23.28;48.10
60059;BME280;45932;50.658;3.022;2022-07-24T02:20:37;101585.16;;;23.75;47.96
60059;BME280;45932;50.658;3.022;2022-07-24T02:23:06;101497.88;;;23.11;48.04
60059;BME280;45932;50.658;3.022;2022-07-24T02:25:31;101584.59;;;23.66;48.22
60059;BME280;45932;50.658;3.022;2022-07-24T02:27:56;101470.72;;;22.93;47.98
60059;BME280;45932;50.658;3.022;2022-07-24T02:30:22;101492.38;;;23.14;48.27
60059;BME280;45932;50.658;3.022;2022-07-24T02:32:49;101450.03;;;22.95;48.04
60059;BME280;45932;50.658;3.022;2022-07-24T02:35:15;101537.19;;;23.39;48.46
60059;BME280;45932;50.658;3.022;2022-07-24T02:37:43;101521.28;;;23.32;48.04
60059;BME280;45932;50.658;3.022;2022-07-24T02:40:09;101500.06;;;23.25;48.02
60059;BME280;45932;50.658;3.022;2022-07-24T02:42:36;101484.44;;;23.11;48.05
60059;BME280;45932;50.658;3.022;2022-07-24T02:45:03;101465.59;;;23.11;48.03
60059;BME280;45932;50.658;3.022;2022-07-24T02:47:28;101565.47;;;23.73;48.10
60059;BME280;45932;50.658;3.022;2022-07-24T02:49:54;101560.06;;;23.74;48.20
60059;BME280;45932;50.658;3.022;2022-07-24T02:52:19;101428.84;;;22.86;48.18
60059;BME280;45932;50.658;3.022;2022-07-24T02:54:44;101482.38;;;23.17;48.18
60059;BME280;45932;50.658;3.022;2022-07-24T02:57:10;101564.72;;;23.69;48.33
60059;BME280;45932;50.658;3.022;2022-07-24T02:59:35;101412.41;;;22.70;48.65
60059;BME280;45932;50.658;3.022;2022-07-24T03:02:01;101476.22;;;23.14;47.93
60059;BME280;45932;50.658;3.022;2022-07-24T03:04:26;101471.66;;;23.16;48.23
60059;BME280;45932;50.658;3.022;2022-07-24T03:06:51;101539.88;;;23.62;47.94
60059;BME280;45932;50.658;3.022;2022-07-24T03:09:17;101365.50;;;22.55;47.67
60059;BME280;45932;50.658;3.022;2022-07-24T03:11:42;101572.88;;;23.67;47.82
60059;BME280;45932;50.658;3.022;2022-07-24T03:14:08;101418.22;;;22.83;48.17
60059;BME280;45932;50.658;3.022;2022-07-24T03:16:33;101390.97;;;22.68;48.43
60059;BME280;45932;50.658;3.022;2022-07-24T03:18:58;101430.84;;;22.81;47.97
60059;BME280;45932;50.658;3.022;2022-07-24T03:21:24;101508.31;;;23.20;48.38
60059;BME280;45932;50.658;3.022;2022-07-24T03:23:49;101415.81;;;22.75;48.32
60059;BME280;45932;50.658;3.022;2022-07-24T03:26:15;101373.09;;;22.44;48.83
60059;BME280;45932;50.658;3.022;2022-07-24T03:28:41;101390.53;;;22.57;49.03
60059;BME280;45932;50.658;3.022;2022-07-24T03:31:06;101472.84;;;23.09;48.91
60059;BME280;45932;50.658;3.022;2022-07-24T03:33:32;101406.19;;;22.69;48.84
60059;BME280;45932;50.658;3.022;2022-07-24T03:35:59;101411.19;;;22.79;48.90
60059;BME280;45932;50.658;3.022;2022-07-24T03:38:25;101374.66;;;22.49;48.57
60059;BME280;45932;50.658;3.022;2022-07-24T03:40:50;101368.47;;;22.47;48.95
60059;BME280;45932;50.658;3.022;2022-07-24T03:43:16;101364.19;;;22.42;49.03
60059;BME280;45932;50.658;3.022;2022-07-24T03:45:41;101529.50;;;23.29;48.78
60059;BME280;45932;50.658;3.022;2022-07-24T03:48:09;101414.94;;;22.75;48.81
60059;BME280;45932;50.658;3.022;2022-07-24T03:50:35;101460.47;;;23.03;48.85
60059;BME280;45932;50.658;3.022;2022-07-24T03:53:00;101417.03;;;22.66;48.85
60059;BME280;45932;50.658;3.022;2022-07-24T03:55:26;101524.22;;;23.26;49.00
60059;BME280;45932;50.658;3.022;2022-07-24T03:57:51;101482.94;;;23.02;48.93
60059;BME280;45932;50.658;3.022;2022-07-24T04:00:17;101478.44;;;23.02;49.02
60059;BME280;45932;50.658;3.022;2022-07-24T04:02:42;101427.47;;;22.76;48.98
60059;BME280;45932;50.658;3.022;2022-07-24T04:05:08;101423.06;;;22.73;49.17
60059;BME280;45932;50.658;3.022;2022-07-24T04:07:37;101379.22;;;22.47;48.70
60059;BME280;45932;50.658;3.022;2022-07-24T04:10:03;101427.56;;;22.73;48.55
60059;BME280;45932;50.658;3.022;2022-07-24T04:12:29;101478.22;;;23.09;48.77
60059;BME280;45932;50.658;3.022;2022-07-24T04:14:54;101415.69;;;22.78;48.54
60059;BME280;45932;50.658;3.022;2022-07-24T04:17:20;101418.31;;;22.80;48.61
60059;BME280;45932;50.658;3.022;2022-07-24T04:19:45;101360.34;;;22.49;48.64
60059;BME280;45932;50.658;3.022;2022-07-24T04:22:11;101370.88;;;22.55;48.44
60059;BME280;45932;50.658;3.022;2022-07-24T04:24:36;101399.44;;;22.58;48.40
60059;BME280;45932;50.658;3.022;2022-07-24T04:27:01;101430.00;;;22.79;48.52
60059;BME280;45932;50.658;3.022;2022-07-24T04:29:27;101419.63;;;22.69;48.78
60059;BME280;45932;50.658;3.022;2022-07-24T04:31:52;101422.94;;;22.76;48.67
60059;BME280;45932;50.658;3.022;2022-07-24T04:34:17;101411.81;;;22.62;48.70
60059;BME280;45932;50.658;3.022;2022-07-24T04:36:43;101509.34;;;23.16;49.01
60059;BME280;45932;50.658;3.022;2022-07-24T04:39:08;101420.78;;;22.62;48.97
60059;BME280;45932;50.658;3.022;2022-07-24T04:41:34;101409.38;;;22.55;48.86
60059;BME280;45932;50.658;3.022;2022-07-24T04:43:59;101481.25;;;22.99;49.31
60059;BME280;45932;50.658;3.022;2022-07-24T04:46:24;101425.09;;;22.66;49.32
60059;BME280;45932;50.658;3.022;2022-07-24T04:48:50;101452.25;;;22.84;48.86
60059;BME280;45932;50.658;3.022;2022-07-24T04:51:15;101490.22;;;23.00;48.85
60059;BME280;45932;50.658;3.022;2022-07-24T04:53:41;101479.63;;;22.95;48.45
60059;BME280;45932;50.658;3.022;2022-07-24T04:56:06;101412.72;;;22.62;48.89
60059;BME280;45932;50.658;3.022;2022-07-24T04:58:32;101443.94;;;22.66;48.59
60059;BME280;45932;50.658;3.022;2022-07-24T05:00:57;101470.66;;;22.95;48.17
60059;BME280;45932;50.658;3.022;2022-07-24T05:03:23;101458.63;;;22.81;48.09
60059;BME280;45932;50.658;3.022;2022-07-24T05:05:48;101517.13;;;23.24;48.25
60059;BME280;45932;50.658;3.022;2022-07-24T05:08:14;101538.94;;;23.40;48.21
60059;BME280;45932;50.658;3.022;2022-07-24T05:10:39;101410.66;;;22.69;48.44
60059;BME280;45932;50.658;3.022;2022-07-24T05:13:05;101422.09;;;22.76;48.75
60059;BME280;45932;50.658;3.022;2022-07-24T05:15:31;101380.09;;;22.48;48.32
60059;BME280;45932;50.658;3.022;2022-07-24T05:17:56;101452.13;;;22.87;48.44
60059;BME280;45932;50.658;3.022;2022-07-24T05:20:21;101399.50;;;22.56;48.39
60059;BME280;45932;50.658;3.022;2022-07-24T05:22:47;101429.31;;;22.74;47.46
60059;BME280;45932;50.658;3.022;2022-07-24T05:25:12;101474.47;;;22.89;47.62
60059;BME280;45932;50.658;3.022;2022-07-24T05:27:38;101551.41;;;23.42;47.66
60059;BME280;45932;50.658;3.022;2022-07-24T05:30:05;101445.47;;;22.74;47.82
60059;BME280;45932;50.658;3.022;2022-07-24T05:32:30;101457.69;;;22.82;47.84
60059;BME280;45932;50.658;3.022;2022-07-24T05:34:56;101428.38;;;22.51;47.28
60059;BME280;45932;50.658;3.022;2022-07-24T05:37:21;101568.94;;;23.30;47.67
60059;BME280;45932;50.658;3.022;2022-07-24T05:39:47;101458.06;;;22.71;47.79
60059;BME280;45932;50.658;3.022;2022-07-24T05:42:12;101400.97;;;22.41;48.17
60059;BME280;45932;50.658;3.022;2022-07-24T05:44:37;101525.09;;;23.27;48.83
60059;BME280;45932;50.658;3.022;2022-07-24T05:47:04;101441.94;;;22.71;48.21
60059;BME280;45932;50.658;3.022;2022-07-24T05:49:29;101441.84;;;22.75;48.43
60059;BME280;45932;50.658;3.022;2022-07-24T05:51:55;101421.31;;;22.72;48.35
60059;BME280;45932;50.658;3.022;2022-07-24T05:54:20;101503.69;;;23.24;48.40
60059;BME280;45932;50.658;3.022;2022-07-24T05:56:45;101418.16;;;22.84;48.42
60059;BME280;45932;50.658;3.022;2022-07-24T05:59:11;101414.84;;;22.78;48.12
60059;BME280;45932;50.658;3.022;2022-07-24T06:01:36;101407.47;;;22.83;48.37
60059;BME280;45932;50.658;3.022;2022-07-24T06:04:01;101438.25;;;22.98;47.89
60059;BME280;45932;50.658;3.022;2022-07-24T06:06:27;101509.81;;;23.27;47.27
60059;BME280;45932;50.658;3.022;2022-07-24T06:08:52;101478.84;;;23.17;47.16
60059;BME280;45932;50.658;3.022;2022-07-24T06:11:18;101552.50;;;23.60;46.76
60059;BME280;45932;50.658;3.022;2022-07-24T06:13:48;101534.03;;;23.51;46.94
60059;BME280;45932;50.658;3.022;2022-07-24T06:16:13;101518.25;;;23.42;46.80
60059;BME280;45932;50.658;3.022;2022-07-24T06:18:38;101423.13;;;22.95;46.71
60059;BME280;45932;50.658;3.022;2022-07-24T06:21:04;101420.09;;;23.05;47.50
60059;BME280;45932;50.658;3.022;2022-07-24T06:23:29;101456.91;;;23.26;47.41
60059;BME280;45932;50.658;3.022;2022-07-24T06:25:55;101533.72;;;23.81;47.96
60059;BME280;45932;50.658;3.022;2022-07-24T06:28:20;101428.31;;;23.24;48.01
60059;BME280;45932;50.658;3.022;2022-07-24T06:30:45;101481.13;;;23.50;47.35
60059;BME280;45932;50.658;3.022;2022-07-24T06:33:14;101488.78;;;23.61;46.91
60059;BME280;45932;50.658;3.022;2022-07-24T06:35:39;101546.72;;;23.93;46.54
60059;BME280;45932;50.658;3.022;2022-07-24T06:38:04;101502.84;;;23.67;46.48
60059;BME280;45932;50.658;3.022;2022-07-24T06:40:30;101534.09;;;23.95;46.82
60059;BME280;45932;50.658;3.022;2022-07-24T06:42:55;101548.28;;;23.77;46.99
60059;BME280;45932;50.658;3.022;2022-07-24T06:45:20;101545.84;;;23.71;47.00
60059;BME280;45932;50.658;3.022;2022-07-24T06:47:46;101514.31;;;23.50;46.52
60059;BME280;45932;50.658;3.022;2022-07-24T06:50:12;101502.78;;;23.47;46.65
60059;BME280;45932;50.658;3.022;2022-07-24T06:52:39;101554.00;;;23.91;47.25
60059;BME280;45932;50.658;3.022;2022-07-24T06:55:05;101550.19;;;23.97;47.46
60059;BME280;45932;50.658;3.022;2022-07-24T06:57:31;101492.81;;;23.49;46.81
60059;BME280;45932;50.658;3.022;2022-07-24T06:59:56;101511.09;;;23.63;46.66
60059;BME280;45932;50.658;3.022;2022-07-24T07:02:21;101574.81;;;24.10;46.56
60059;BME280;45932;50.658;3.022;2022-07-24T07:04:47;101511.59;;;23.73;46.25
60059;BME280;45932;50.658;3.022;2022-07-24T07:07:13;101560.25;;;24.14;46.80
60059;BME280;45932;50.658;3.022;2022-07-24T07:09:40;101559.41;;;24.13;46.28
60059;BME280;45932;50.658;3.022;2022-07-24T07:12:09;101527.69;;;23.98;46.45
60059;BME280;45932;50.658;3.022;2022-07-24T07:14:34;101566.63;;;24.34;46.63
60059;BME280;45932;50.658;3.022;2022-07-24T07:16:59;101537.75;;;24.15;46.61
60059;BME280;45932;50.658;3.022;2022-07-24T07:19:25;101443.75;;;23.64;46.56
60059;BME280;45932;50.658;3.022;2022-07-24T07:21:51;101428.06;;;23.74;47.49
60059;BME280;45932;50.658;3.022;2022-07-24T07:24:16;101479.31;;;23.95;47.02
60059;BME280;45932;50.658;3.022;2022-07-24T07:26:42;101520.94;;;24.30;46.39
60059;BME280;45932;50.658;3.022;2022-07-24T07:29:07;101398.81;;;23.65;46.59
60059;BME280;45932;50.658;3.022;2022-07-24T07:31:33;101454.72;;;24.03;47.05
60059;BME280;45932;50.658;3.022;2022-07-24T07:33:58;101467.19;;;24.05;46.46
60059;BME280;45932;50.658;3.022;2022-07-24T07:36:24;101552.03;;;24.60;46.63
60059;BME280;45932;50.658;3.022;2022-07-24T07:38:50;101564.19;;;24.70;46.46
60059;BME280;45932;50.658;3.022;2022-07-24T07:41:15;101484.25;;;24.26;46.24
60059;BME280;45932;50.658;3.022;2022-07-24T07:43:40;101442.81;;;24.08;45.74
60059;BME280;45932;50.658;3.022;2022-07-24T07:46:06;101555.03;;;24.93;46.05
60059;BME280;45932;50.658;3.022;2022-07-24T07:48:32;101443.81;;;24.26;46.17
60059;BME280;45932;50.658;3.022;2022-07-24T07:50:58;101562.59;;;25.06;45.85
60059;BME280;45932;50.658;3.022;2022-07-24T07:53:24;101470.19;;;24.40;45.81
60059;BME280;45932;50.658;3.022;2022-07-24T07:55:50;101401.22;;;24.14;45.53
60059;BME280;45932;50.658;3.022;2022-07-24T07:58:18;101507.94;;;24.82;45.81
60059;BME280;45932;50.658;3.022;2022-07-24T08:00:45;101554.44;;;25.26;45.60
60059;BME280;45932;50.658;3.022;2022-07-24T08:03:10;101468.91;;;24.89;45.44
60059;BME280;45932;50.658;3.022;2022-07-24T08:05:35;101447.53;;;24.84;45.78
60059;BME280;45932;50.658;3.022;2022-07-24T08:08:01;101433.47;;;24.97;46.17
60059;BME280;45932;50.658;3.022;2022-07-24T08:10:26;101496.28;;;25.19;45.49
60059;BME280;45932;50.658;3.022;2022-07-24T08:12:52;101471.53;;;25.09;45.01
60059;BME280;45932;50.658;3.022;2022-07-24T08:15:17;101480.22;;;25.16;44.90
60059;BME280;45932;50.658;3.022;2022-07-24T08:17:43;101488.47;;;25.32;44.48
60059;BME280;45932;50.658;3.022;2022-07-24T08:20:09;101482.25;;;25.30;45.12
60059;BME280;45932;50.658;3.022;2022-07-24T08:22:34;101452.22;;;25.19;45.03
60059;BME280;45932;50.658;3.022;2022-07-24T08:25:00;101483.00;;;25.34;44.59
60059;BME280;45932;50.658;3.022;2022-07-24T08:27:25;101455.34;;;25.29;45.11
60059;BME280;45932;50.658;3.022;2022-07-24T08:29:50;101513.28;;;25.60;44.76
60059;BME280;45932;50.658;3.022;2022-07-24T08:32:16;101516.69;;;25.82;44.26
60059;BME280;45932;50.658;3.022;2022-07-24T08:34:41;101447.66;;;25.57;44.51
60059;BME280;45932;50.658;3.022;2022-07-24T08:37:09;101560.44;;;26.27;43.42
60059;BME280;45932;50.658;3.022;2022-07-24T08:39:34;101557.34;;;26.35;43.60
60059;BME280;45932;50.658;3.022;2022-07-24T08:41:59;101493.09;;;26.03;43.92
60059;BME280;45932;50.658;3.022;2022-07-24T08:44:27;101405.16;;;25.61;43.60
60059;BME280;45932;50.658;3.022;2022-07-24T08:46:54;101557.81;;;26.61;43.76
60059;BME280;45932;50.658;3.022;2022-07-24T08:49:24;101511.84;;;26.43;43.83
60059;BME280;45932;50.658;3.022;2022-07-24T08:51:52;101453.25;;;26.09;43.82
60059;BME280;45932;50.658;3.022;2022-07-24T08:54:21;101540.91;;;26.73;44.04
60059;BME280;45932;50.658;3.022;2022-07-24T08:56:53;101482.22;;;26.40;43.05
60059;BME280;45932;50.658;3.022;2022-07-24T08:59:20;101494.47;;;26.65;43.10
60059;BME280;45932;50.658;3.022;2022-07-24T09:01:50;101504.31;;;26.83;43.25
60059;BME280;45932;50.658;3.022;2022-07-24T09:04:48;101452.94;;;26.66;43.34
60059;BME280;45932;50.658;3.022;2022-07-24T09:07:18;101496.00;;;27.04;43.28
60059;BME280;45932;50.658;3.022;2022-07-24T09:10:04;101444.81;;;26.66;42.92
60059;BME280;45932;50.658;3.022;2022-07-24T09:12:37;101520.28;;;27.22;42.63
60059;BME280;45932;50.658;3.022;2022-07-24T09:15:16;101535.38;;;27.43;42.88
60059;BME280;45932;50.658;3.022;2022-07-24T09:17:57;101455.28;;;27.22;43.31
60059;BME280;45932;50.658;3.022;2022-07-24T09:20:27;101435.34;;;26.91;41.98
60059;BME280;45932;50.658;3.022;2022-07-24T09:22:56;101502.16;;;27.56;42.37
60059;BME280;45932;50.658;3.022;2022-07-24T09:25:24;101542.50;;;27.92;41.91
60059;BME280;45932;50.658;3.022;2022-07-24T09:27:52;101489.09;;;27.78;41.71
60059;BME280;45932;50.658;3.022;2022-07-24T09:30:37;101498.16;;;28.09;42.22
60059;BME280;45932;50.658;3.022;2022-07-24T09:35:44;101526.03;;;29.01;39.65
60059;BME280;45932;50.658;3.022;2022-07-24T09:38:28;101507.09;;;29.14;39.10
60059;BME280;45932;50.658;3.022;2022-07-24T09:40:56;101466.09;;;28.75;39.38
60059;BME280;45932;50.658;3.022;2022-07-24T09:43:27;101454.84;;;28.82;39.00
60059;BME280;45932;50.658;3.022;2022-07-24T09:46:09;101571.38;;;29.71;38.12
60059;BME280;45932;50.658;3.022;2022-07-24T09:48:55;101513.06;;;29.63;37.96
60059;BME280;45932;50.658;3.022;2022-07-24T09:51:23;101589.81;;;30.35;36.37
60059;BME280;45932;50.658;3.022;2022-07-24T09:53:54;101538.88;;;30.38;38.12
60059;BME280;45932;50.658;3.022;2022-07-24T09:56:20;101506.63;;;30.44;39.05
60059;BME280;45932;50.658;3.022;2022-07-24T10:01:13;101597.69;;;31.19;35.11
60059;BME280;45932;50.658;3.022;2022-07-24T10:03:41;101518.69;;;30.93;37.14
60059;BME280;45932;50.658;3.022;2022-07-24T10:06:09;101586.88;;;31.43;35.29
60059;BME280;45932;50.658;3.022;2022-07-24T10:08:38;101584.63;;;31.61;35.35
60059;BME280;45932;50.658;3.022;2022-07-24T10:11:04;101536.94;;;31.80;34.44
60059;BME280;45932;50.658;3.022;2022-07-24T10:13:30;101572.50;;;32.27;34.23
60059;BME280;45932;50.658;3.022;2022-07-24T10:18:47;101517.56;;;32.43;34.04
60059;BME280;45932;50.658;3.022;2022-07-24T10:21:26;101531.00;;;32.11;32.58
60059;BME280;45932;50.658;3.022;2022-07-24T10:26:46;101559.56;;;32.53;34.07
60059;BME280;45932;50.658;3.022;2022-07-24T10:29:16;101566.19;;;32.73;35.22
60059;BME280;45932;50.658;3.022;2022-07-24T10:31:44;101567.16;;;32.72;35.02
60059;BME280;45932;50.658;3.022;2022-07-24T10:34:36;101555.41;;;32.83;33.06
60059;BME280;45932;50.658;3.022;2022-07-24T10:37:10;101580.41;;;33.13;32.83
60059;BME280;45932;50.658;3.022;2022-07-24T10:39:45;101476.75;;;32.53;32.09
60059;BME280;45932;50.658;3.022;2022-07-24T10:42:12;101565.84;;;33.24;31.58
60059;BME280;45932;50.658;3.022;2022-07-24T10:44:38;101576.06;;;33.44;31.42
60059;BME280;45932;50.658;3.022;2022-07-24T10:47:12;101585.75;;;33.60;31.70
60059;BME280;45932;50.658;3.022;2022-07-24T10:49:44;101509.47;;;33.34;33.60
60059;BME280;45932;50.658;3.022;2022-07-24T10:52:33;101577.63;;;33.81;31.11
60059;BME280;45932;50.658;3.022;2022-07-24T11:00:55;101561.59;;;33.88;31.31
60059;BME280;45932;50.658;3.022;2022-07-24T11:03:23;101553.94;;;34.03;30.31
60059;BME280;45932;50.658;3.022;2022-07-24T11:06:10;101494.19;;;33.75;31.51
60059;BME280;45932;50.658;3.022;2022-07-24T11:08:40;101540.56;;;34.09;30.67
60059;BME280;45932;50.658;3.022;2022-07-24T11:11:08;101511.00;;;34.03;31.18
60059;BME280;45932;50.658;3.022;2022-07-24T11:16:12;101527.94;;;34.29;30.95
60059;BME280;45932;50.658;3.022;2022-07-24T11:18:39;101490.06;;;34.13;30.18
60059;BME280;45932;50.658;3.022;2022-07-24T11:21:05;101536.16;;;34.51;31.22
60059;BME280;45932;50.658;3.022;2022-07-24T11:23:30;101491.50;;;34.18;30.95
60059;BME280;45932;50.658;3.022;2022-07-24T11:29:24;101502.06;;;34.22;29.73
60059;BME280;45932;50.658;3.022;2022-07-24T11:32:13;101537.66;;;34.55;32.17
60059;BME280;45932;50.658;3.022;2022-07-24T11:34:48;101540.50;;;34.53;29.43
60059;BME280;45932;50.658;3.022;2022-07-24T11:37:14;101489.59;;;34.29;29.50
60059;BME280;45932;50.658;3.022;2022-07-24T11:39:42;101502.78;;;34.36;30.41
60059;BME280;45932;50.658;3.022;2022-07-24T11:42:29;101516.97;;;34.51;29.55
60059;BME280;45932;50.658;3.022;2022-07-24T11:44:54;101511.44;;;34.41;29.08
60059;BME280;45932;50.658;3.022;2022-07-24T11:47:21;101495.16;;;34.39;30.56
60059;BME280;45932;50.658;3.022;2022-07-24T11:52:18;101501.53;;;34.50;32.69
60059;BME280;45932;50.658;3.022;2022-07-24T11:54:45;101476.59;;;34.43;29.97
60059;BME280;45932;50.658;3.022;2022-07-24T11:57:37;101470.81;;;34.46;29.09
60059;BME280;45932;50.658;3.022;2022-07-24T12:00:05;101491.19;;;34.53;28.94
60059;BME280;45932;50.658;3.022;2022-07-24T12:02:33;101440.31;;;34.08;28.69
60059;BME280;45932;50.658;3.022;2022-07-24T12:05:02;101467.22;;;34.24;30.07
60059;BME280;45932;50.658;3.022;2022-07-24T12:07:36;101462.00;;;34.21;29.05
60059;BME280;45932;50.658;3.022;2022-07-24T12:10:03;101450.91;;;34.23;28.86
60059;BME280;45932;50.658;3.022;2022-07-24T12:12:32;101460.16;;;34.22;29.05
60059;BME280;45932;50.658;3.022;2022-07-24T12:15:07;101449.19;;;34.22;30.45
60059;BME280;45932;50.658;3.022;2022-07-24T12:17:54;101460.28;;;34.41;31.46
60059;BME280;45932;50.658;3.022;2022-07-24T12:20:26;101467.75;;;34.39;30.05
60059;BME280;45932;50.658;3.022;2022-07-24T12:22:53;101438.69;;;34.27;29.33
60059;BME280;45932;50.658;3.022;2022-07-24T12:25:19;101437.41;;;34.31;29.50
60059;BME280;45932;50.658;3.022;2022-07-24T12:27:45;101458.25;;;34.43;30.19
60059;BME280;45932;50.658;3.022;2022-07-24T12:30:31;101435.41;;;34.33;29.36
60059;BME280;45932;50.658;3.022;2022-07-24T12:33:26;101439.16;;;34.32;31.37
60059;BME280;45932;50.658;3.022;2022-07-24T12:35:57;101414.84;;;34.18;31.47
60059;BME280;45932;50.658;3.022;2022-07-24T12:38:29;101335.59;;;33.74;31.66
60059;BME280;45932;50.658;3.022;2022-07-24T12:43:27;101403.91;;;34.18;32.03
60059;BME280;45932;50.658;3.022;2022-07-24T12:46:10;101415.25;;;34.34;29.70
60059;BME280;45932;50.658;3.022;2022-07-24T12:48:36;101378.59;;;34.04;30.20
60059;BME280;45932;50.658;3.022;2022-07-24T12:51:10;101346.53;;;33.85;29.81
60059;BME280;45932;50.658;3.022;2022-07-24T12:53:40;101436.56;;;34.30;29.71
60059;BME280;45932;50.658;3.022;2022-07-24T13:01:20;101404.25;;;34.24;30.30
60059;BME280;45932;50.658;3.022;2022-07-24T13:04:01;101379.06;;;34.09;30.80
60059;BME280;45932;50.658;3.022;2022-07-24T13:06:35;101330.34;;;33.82;31.30
60059;BME280;45932;50.658;3.022;2022-07-24T13:12:48;101388.66;;;34.25;30.14
60059;BME280;45932;50.658;3.022;2022-07-24T13:15:14;101364.66;;;34.07;29.07
60059;BME280;45932;50.658;3.022;2022-07-24T13:17:40;101307.00;;;33.78;29.52
60059;BME280;45932;50.658;3.022;2022-07-24T13:20:06;101376.97;;;34.23;29.91
60059;BME280;45932;50.658;3.022;2022-07-24T13:22:32;101301.91;;;33.73;30.11
60059;BME280;45932;50.658;3.022;2022-07-24T13:24:57;101367.25;;;34.09;30.24
60059;BME280;45932;50.658;3.022;2022-07-24T13:27:23;101332.47;;;33.99;28.71
60059;BME280;45932;50.658;3.022;2022-07-24T13:29:48;101300.19;;;33.72;29.05
60059;BME280;45932;50.658;3.022;2022-07-24T13:32:13;101359.91;;;34.09;28.62
60059;BME280;45932;50.658;3.022;2022-07-24T13:34:39;101280.56;;;33.67;28.76